sensor_id;sensor_type;location;lat;lon;timestamp;pressure;altitude;pressure_sealevel;temperature;humidity
22031;BME280;11179;52.106;21.024;2023-07-13T00:00:17;99987.34;;;18.58;68.46
22031;BME280;11179;52.106;21.024;2023-07-13T00:02:43;99988.16;;;18.59;68.39
22031;BME280;11179;52.106;21.024;2023-07-13T00:05:08;99993.22;;;18.57;68.43
22031;BME280;11179;52.106;21.024;2023-07-13T00:07:34;99986.63;;;18.53;68.56
22031;BME280;11179;52.106;21.024;2023-07-13T00:10:00;99982.72;;;18.54;68.55
22031;BME280;11179;52.106;21.024;2023-07-13T00:12:27;99980.25;;;18.52;68.59
22031;BME280;11179;52.106;21.024;2023-07-13T00:14:56;99977.81;;;18.51;68.68
22031;BME280;11179;52.106;21.024;2023-07-13T00:17:21;99977.97;;;18.46;68.62
22031;BME280;11179;52.106;21.024;2023-07-13T00:19:46;99966.84;;;18.46;68.87
22031;BME280;11179;52.106;21.024;2023-07-13T00:22:12;99967.47;;;18.43;68.80
22031;BME280;11179;52.106;21.024;2023-07-13T00:24:37;99954.06;;;18.36;68.95
22031;BME280;11179;52.106;21.024;2023-07-13T00:27:08;99966.66;;;18.42;69.19
22031;BME280;11179;52.106;21.024;2023-07-13T00:29:34;99982.81;;;18.40;69.06
22031;BME280;11179;52.106;21.024;2023-07-13T00:32:00;99968.41;;;18.38;69.12
22031;BME280;11179;52.106;21.024;2023-07-13T00:34:25;99965.66;;;18.38;69.15
22031;BME280;11179;52.106;21.024;2023-07-13T00:36:51;99970.72;;;18.36;69.15
22031;BME280;11179;52.106;21.024;2023-07-13T00:39:16;99973.16;;;18.38;69.17
22031;BME280;11179;52.106;21.024;2023-07-13T00:41:41;99975.47;;;18.36;69.20
22031;BME280;11179;52.106;21.024;2023-07-13T00:44:13;99960.44;;;18.37;69.41
22031;BME280;11179;52.106;21.024;2023-07-13T00:46:39;99973.78;;;18.35;69.22
22031;BME280;11179;52.106;21.024;2023-07-13T00:49:07;99977.41;;;18.35;69.31
22031;BME280;11179;52.106;21.024;2023-07-13T00:51:38;99974.09;;;18.33;69.42
22031;BME280;11179;52.106;21.024;2023-07-13T00:54:09;99975.47;;;18.36;69.52
22031;BME280;11179;52.106;21.024;2023-07-13T00:56:36;99974.44;;;18.32;69.23
22031;BME280;11179;52.106;21.024;2023-07-13T00:59:03;99971.66;;;18.32;69.39
22031;BME280;11179;52.106;21.024;2023-07-13T01:01:30;99971.31;;;18.33;69.36
22031;BME280;11179;52.106;21.024;2023-07-13T01:03:55;99975.25;;;18.32;69.66
22031;BME280;11179;52.106;21.024;2023-07-13T01:06:22;99978.84;;;18.33;69.43
22031;BME280;11179;52.106;21.024;2023-07-13T01:08:47;99989.13;;;18.32;69.42
22031;BME280;11179;52.106;21.024;2023-07-13T01:11:18;99988.31;;;18.32;69.51
22031;BME280;11179;52.106;21.024;2023-07-13T01:13:45;99992.56;;;18.29;69.38
22031;BME280;11179;52.106;21.024;2023-07-13T01:16:19;100005.31;;;18.30;69.50
22031;BME280;11179;52.106;21.024;2023-07-13T01:18:47;99999.56;;;18.26;69.43
22031;BME280;11179;52.106;21.024;2023-07-13T01:21:12;99997.91;;;18.25;69.50
22031;BME280;11179;52.106;21.024;2023-07-13T01:23:37;99993.84;;;18.23;69.68
22031;BME280;11179;52.106;21.024;2023-07-13T01:26:02;99993.03;;;18.22;69.70
22031;BME280;11179;52.106;21.024;2023-07-13T01:28:28;99991.69;;;18.20;69.72
22031;BME280;11179;52.106;21.024;2023-07-13T01:30:56;99996.13;;;18.21;69.96
22031;BME280;11179;52.106;21.024;2023-07-13T01:33:22;100011.16;;;18.20;69.87
22031;BME280;11179;52.106;21.024;2023-07-13T01:35:48;100007.53;;;18.19;70.02
22031;BME280;11179;52.106;21.024;2023-07-13T01:38:15;100008.69;;;18.18;69.89
22031;BME280;11179;52.106;21.024;2023-07-13T01:40:40;100018.97;;;18.18;70.02
22031;BME280;11179;52.106;21.024;2023-07-13T01:43:06;100019.78;;;18.18;70.04
22031;BME280;11179;52.106;21.024;2023-07-13T01:45:31;100016.50;;;18.16;70.05
22031;BME280;11179;52.106;21.024;2023-07-13T01:47:57;100013.22;;;18.14;70.16
22031;BME280;11179;52.106;21.024;2023-07-13T01:50:23;100002.94;;;18.15;70.05
22031;BME280;11179;52.106;21.024;2023-07-13T01:52:48;100002.09;;;18.14;70.17
22031;BME280;11179;52.106;21.024;2023-07-13T01:55:14;100006.03;;;18.13;70.23
22031;BME280;11179;52.106;21.024;2023-07-13T01:57:39;100002.09;;;18.14;70.34
22031;BME280;11179;52.106;21.024;2023-07-13T02:00:06;99996.88;;;18.13;70.34
22031;BME280;11179;52.106;21.024;2023-07-13T02:02:32;100000.47;;;18.13;70.34
22031;BME280;11179;52.106;21.024;2023-07-13T02:04:57;100002.41;;;18.13;70.49
22031;BME280;11179;52.106;21.024;2023-07-13T02:07:23;100010.75;;;18.13;70.49
22031;BME280;11179;52.106;21.024;2023-07-13T02:09:48;100009.94;;;18.12;70.48
22031;BME280;11179;52.106;21.024;2023-07-13T02:12:13;100009.13;;;18.12;70.57
22031;BME280;11179;52.106;21.024;2023-07-13T02:14:38;100017.78;;;18.10;70.54
22031;BME280;11179;52.106;21.024;2023-07-13T02:17:04;100015.00;;;18.10;70.56
22031;BME280;11179;52.106;21.024;2023-07-13T02:19:30;100024.81;;;18.08;70.66
22031;BME280;11179;52.106;21.024;2023-07-13T02:21:55;100029.53;;;18.07;70.54
22031;BME280;11179;52.106;21.024;2023-07-13T02:24:20;100024.59;;;18.04;70.75
22031;BME280;11179;52.106;21.024;2023-07-13T02:26:46;100024.59;;;18.04;70.89
22031;BME280;11179;52.106;21.024;2023-07-13T02:29:12;100013.50;;;18.04;70.92
22031;BME280;11179;52.106;21.024;2023-07-13T02:31:38;100025.44;;;18.05;70.68
22031;BME280;11179;52.106;21.024;2023-07-13T02:34:03;100027.38;;;18.04;70.75
22031;BME280;11179;52.106;21.024;2023-07-13T02:36:29;100032.13;;;18.04;70.79
22031;BME280;11179;52.106;21.024;2023-07-13T02:38:55;100027.38;;;18.04;70.72
22031;BME280;11179;52.106;21.024;2023-07-13T02:41:20;100028.50;;;18.03;70.77
22031;BME280;11179;52.106;21.024;2023-07-13T02:43:48;100025.22;;;18.01;71.02
22031;BME280;11179;52.106;21.024;2023-07-13T02:46:13;100026.56;;;18.04;70.99
22031;BME280;11179;52.106;21.024;2023-07-13T02:48:39;100013.50;;;18.04;70.83
22031;BME280;11179;52.106;21.024;2023-07-13T02:51:05;100018.41;;;18.07;71.12
22031;BME280;11179;52.106;21.024;2023-07-13T02:53:31;100014.31;;;18.05;70.76
22031;BME280;11179;52.106;21.024;2023-07-13T02:55:56;100019.56;;;18.06;70.98
22031;BME280;11179;52.106;21.024;2023-07-13T02:58:22;100018.41;;;18.07;70.88
22031;BME280;11179;52.106;21.024;2023-07-13T03:00:48;100015.13;;;18.05;70.95
22031;BME280;11179;52.106;21.024;2023-07-13T03:03:15;100015.94;;;18.06;70.88
22031;BME280;11179;52.106;21.024;2023-07-13T03:05:42;100024.28;;;18.06;71.17
22031;BME280;11179;52.106;21.024;2023-07-13T03:08:08;100018.41;;;18.07;71.04
22031;BME280;11179;52.106;21.024;2023-07-13T03:10:34;100018.09;;;18.09;71.12
22031;BME280;11179;52.106;21.024;2023-07-13T03:13:00;100017.44;;;18.12;71.07
22031;BME280;11179;52.106;21.024;2023-07-13T03:15:25;100023.81;;;18.12;71.03
22031;BME280;11179;52.106;21.024;2023-07-13T03:17:50;100018.28;;;18.12;71.03
22031;BME280;11179;52.106;21.024;2023-07-13T03:20:15;100021.25;;;18.16;70.93
22031;BME280;11179;52.106;21.024;2023-07-13T03:22:41;100023.72;;;18.17;70.87
22031;BME280;11179;52.106;21.024;2023-07-13T03:25:07;100019.78;;;18.18;70.88
22031;BME280;11179;52.106;21.024;2023-07-13T03:27:32;100014.59;;;18.25;70.72
22031;BME280;11179;52.106;21.024;2023-07-13T03:29:58;100011.94;;;18.43;70.70
22031;BME280;11179;52.106;21.024;2023-07-13T03:32:23;100001.25;;;18.67;70.24
22031;BME280;11179;52.106;21.024;2023-07-13T03:34:48;100009.69;;;18.84;70.16
22031;BME280;11179;52.106;21.024;2023-07-13T03:37:14;99997.78;;;19.10;70.19
22031;BME280;11179;52.106;21.024;2023-07-13T03:39:39;100000.31;;;19.46;69.77
22031;BME280;11179;52.106;21.024;2023-07-13T03:42:05;100005.44;;;19.78;69.50
22031;BME280;11179;52.106;21.024;2023-07-13T03:44:30;99999.69;;;20.09;69.03
22031;BME280;11179;52.106;21.024;2023-07-13T03:46:55;99991.72;;;20.46;68.45
22031;BME280;11179;52.106;21.024;2023-07-13T03:49:21;99993.06;;;20.78;67.57
22031;BME280;11179;52.106;21.024;2023-07-13T03:51:46;99993.72;;;21.13;66.90
22031;BME280;11179;52.106;21.024;2023-07-13T03:54:12;99989.25;;;21.41;65.67
22031;BME280;11179;52.106;21.024;2023-07-13T03:56:37;99990.56;;;21.64;65.28
22031;BME280;11179;52.106;21.024;2023-07-13T03:59:03;99990.53;;;21.85;64.57
22031;BME280;11179;52.106;21.024;2023-07-13T04:01:28;99992.63;;;22.09;64.20
22031;BME280;11179;52.106;21.024;2023-07-13T04:03:54;99990.41;;;22.35;63.45
22031;BME280;11179;52.106;21.024;2023-07-13T04:06:26;99990.91;;;22.49;62.92
22031;BME280;11179;52.106;21.024;2023-07-13T04:08:54;99990.91;;;22.74;62.38
22031;BME280;11179;52.106;21.024;2023-07-13T04:11:21;99998.19;;;22.99;61.10
22031;BME280;11179;52.106;21.024;2023-07-13T04:13:47;100003.88;;;23.27;60.23
22031;BME280;11179;52.106;21.024;2023-07-13T04:16:14;100003.69;;;23.60;59.19
22031;BME280;11179;52.106;21.024;2023-07-13T04:18:40;100022.03;;;23.98;58.46
22031;BME280;11179;52.106;21.024;2023-07-13T04:21:07;100013.94;;;24.36;57.85
22031;BME280;11179;52.106;21.024;2023-07-13T04:23:32;100014.88;;;24.72;56.46
22031;BME280;11179;52.106;21.024;2023-07-13T04:25:57;100012.25;;;25.10;56.02
22031;BME280;11179;52.106;21.024;2023-07-13T04:28:26;100022.53;;;25.38;55.63
22031;BME280;11179;52.106;21.024;2023-07-13T04:30:52;100025.94;;;25.47;55.75
22031;BME280;11179;52.106;21.024;2023-07-13T04:33:17;100024.50;;;25.53;54.94
22031;BME280;11179;52.106;21.024;2023-07-13T04:35:47;100029.06;;;25.42;54.48
22031;BME280;11179;52.106;21.024;2023-07-13T04:38:13;100039.22;;;25.30;54.54
22031;BME280;11179;52.106;21.024;2023-07-13T04:40:40;100034.72;;;25.10;54.66
22031;BME280;11179;52.106;21.024;2023-07-13T04:43:05;100046.31;;;24.93;54.45
22031;BME280;11179;52.106;21.024;2023-07-13T04:45:30;100056.28;;;24.75;54.48
22031;BME280;11179;52.106;21.024;2023-07-13T04:47:56;100058.41;;;24.50;54.92
22031;BME280;11179;52.106;21.024;2023-07-13T04:50:21;100056.28;;;24.31;54.99
22031;BME280;11179;52.106;21.024;2023-07-13T04:52:52;100049.66;;;24.11;55.61
22031;BME280;11179;52.106;21.024;2023-07-13T04:55:18;100048.47;;;23.97;56.00
22031;BME280;11179;52.106;21.024;2023-07-13T04:57:44;100054.34;;;23.79;56.33
22031;BME280;11179;52.106;21.024;2023-07-13T05:00:10;100049.34;;;23.73;56.49
22031;BME280;11179;52.106;21.024;2023-07-13T05:02:37;100049.13;;;23.66;57.09
22031;BME280;11179;52.106;21.024;2023-07-13T05:05:03;100059.25;;;23.58;57.23
22031;BME280;11179;52.106;21.024;2023-07-13T05:07:29;100053.78;;;23.49;57.17
22031;BME280;11179;52.106;21.024;2023-07-13T05:09:54;100061.19;;;23.42;57.68
22031;BME280;11179;52.106;21.024;2023-07-13T05:12:19;100067.00;;;23.37;57.81
22031;BME280;11179;52.106;21.024;2023-07-13T05:14:45;100065.97;;;23.29;58.05
22031;BME280;11179;52.106;21.024;2023-07-13T05:17:10;100070.63;;;23.25;58.79
22031;BME280;11179;52.106;21.024;2023-07-13T05:19:36;100078.78;;;23.18;59.09
22031;BME280;11179;52.106;21.024;2023-07-13T05:22:01;100086.03;;;23.19;59.05
22031;BME280;11179;52.106;21.024;2023-07-13T05:24:28;100080.06;;;23.20;58.92
22031;BME280;11179;52.106;21.024;2023-07-13T05:26:53;100078.69;;;23.27;59.06
22031;BME280;11179;52.106;21.024;2023-07-13T05:29:19;100082.41;;;23.31;59.20
22031;BME280;11179;52.106;21.024;2023-07-13T05:31:45;100086.63;;;23.37;59.13
22031;BME280;11179;52.106;21.024;2023-07-13T05:34:10;100092.91;;;23.46;59.19
22031;BME280;11179;52.106;21.024;2023-07-13T05:36:35;100084.84;;;23.56;58.97
22031;BME280;11179;52.106;21.024;2023-07-13T05:39:03;100092.16;;;23.85;58.94
22031;BME280;11179;52.106;21.024;2023-07-13T05:41:28;100091.19;;;24.06;58.52
22031;BME280;11179;52.106;21.024;2023-07-13T05:43:54;100092.19;;;24.13;58.33
22031;BME280;11179;52.106;21.024;2023-07-13T05:46:19;100098.50;;;24.22;57.96
22031;BME280;11179;52.106;21.024;2023-07-13T05:48:44;100094.34;;;24.44;57.63
22031;BME280;11179;52.106;21.024;2023-07-13T05:51:09;100102.38;;;24.74;57.62
22031;BME280;11179;52.106;21.024;2023-07-13T05:53:35;100099.03;;;24.84;57.65
22031;BME280;11179;52.106;21.024;2023-07-13T05:56:01;100096.28;;;24.72;57.16
22031;BME280;11179;52.106;21.024;2023-07-13T05:58:26;100103.44;;;24.69;57.10
22031;BME280;11179;52.106;21.024;2023-07-13T06:01:03;100105.19;;;24.74;57.09
22031;BME280;11179;52.106;21.024;2023-07-13T06:03:29;100104.88;;;24.63;56.69
22031;BME280;11179;52.106;21.024;2023-07-13T06:05:54;100091.91;;;24.58;57.00
22031;BME280;11179;52.106;21.024;2023-07-13T06:08:19;100091.38;;;24.69;56.89
22031;BME280;11179;52.106;21.024;2023-07-13T06:10:45;100076.34;;;24.77;56.78
22031;BME280;11179;52.106;21.024;2023-07-13T06:13:10;100083.91;;;24.88;56.31
22031;BME280;11179;52.106;21.024;2023-07-13T06:15:35;100091.09;;;25.02;56.03
22031;BME280;11179;52.106;21.024;2023-07-13T06:18:00;100090.72;;;25.19;55.87
22031;BME280;11179;52.106;21.024;2023-07-13T06:20:26;100096.97;;;25.28;55.19
22031;BME280;11179;52.106;21.024;2023-07-13T06:22:51;100088.66;;;25.16;55.33
22031;BME280;11179;52.106;21.024;2023-07-13T06:25:16;100099.06;;;25.15;55.57
22031;BME280;11179;52.106;21.024;2023-07-13T06:27:42;100090.53;;;25.27;55.48
22031;BME280;11179;52.106;21.024;2023-07-13T06:30:08;100086.25;;;25.65;54.91
22031;BME280;11179;52.106;21.024;2023-07-13T06:32:34;100081.09;;;25.86;54.21
22031;BME280;11179;52.106;21.024;2023-07-13T06:34:59;100065.53;;;25.73;53.94
22031;BME280;11179;52.106;21.024;2023-07-13T06:37:24;100062.56;;;25.66;54.00
22031;BME280;11179;52.106;21.024;2023-07-13T06:39:50;100076.50;;;25.78;54.07
22031;BME280;11179;52.106;21.024;2023-07-13T06:42:16;100074.06;;;26.15;52.65
22031;BME280;11179;52.106;21.024;2023-07-13T06:44:41;100077.50;;;26.24;52.56
22031;BME280;11179;52.106;21.024;2023-07-13T06:47:07;100075.13;;;26.26;52.48
22031;BME280;11179;52.106;21.024;2023-07-13T06:49:32;100075.13;;;26.26;51.82
22031;BME280;11179;52.106;21.024;2023-07-13T06:51:57;100071.94;;;26.28;52.31
22031;BME280;11179;52.106;21.024;2023-07-13T06:54:23;100079.69;;;26.15;51.33
22031;BME280;11179;52.106;21.024;2023-07-13T06:56:48;100074.63;;;26.21;51.01
22031;BME280;11179;52.106;21.024;2023-07-13T06:59:13;100073.50;;;26.45;51.15
22031;BME280;11179;52.106;21.024;2023-07-13T07:01:39;100073.81;;;26.82;50.38
22031;BME280;11179;52.106;21.024;2023-07-13T07:04:04;100077.25;;;27.66;48.75
22031;BME280;11179;52.106;21.024;2023-07-13T07:06:29;100084.53;;;27.97;47.35
22031;BME280;11179;52.106;21.024;2023-07-13T07:08:55;100075.97;;;28.20;46.57
22031;BME280;11179;52.106;21.024;2023-07-13T07:11:24;100079.72;;;28.61;44.89
22031;BME280;11179;52.106;21.024;2023-07-13T07:13:52;100080.34;;;29.25;43.87
22031;BME280;11179;52.106;21.024;2023-07-13T07:16:17;100075.91;;;29.86;42.65
22031;BME280;11179;52.106;21.024;2023-07-13T07:18:43;100078.13;;;30.25;41.01
22031;BME280;11179;52.106;21.024;2023-07-13T07:21:09;100075.38;;;30.42;39.96
22031;BME280;11179;52.106;21.024;2023-07-13T07:23:35;100081.84;;;30.39;40.00
22031;BME280;11179;52.106;21.024;2023-07-13T07:26:00;100074.50;;;30.28;39.94
22031;BME280;11179;52.106;21.024;2023-07-13T07:28:25;100071.34;;;30.43;39.28
22031;BME280;11179;52.106;21.024;2023-07-13T07:30:54;100081.91;;;30.61;38.27
22031;BME280;11179;52.106;21.024;2023-07-13T07:33:20;100077.88;;;30.62;38.07
22031;BME280;11179;52.106;21.024;2023-07-13T07:35:45;100087.66;;;30.92;38.40
22031;BME280;11179;52.106;21.024;2023-07-13T07:38:11;100087.66;;;31.00;38.23
22031;BME280;11179;52.106;21.024;2023-07-13T07:40:37;100089.72;;;31.35;38.11
22031;BME280;11179;52.106;21.024;2023-07-13T07:43:03;100088.09;;;31.44;36.99
22031;BME280;11179;52.106;21.024;2023-07-13T07:45:28;100085.22;;;31.66;36.18
22031;BME280;11179;52.106;21.024;2023-07-13T07:47:54;100081.13;;;31.95;35.19
22031;BME280;11179;52.106;21.024;2023-07-13T07:50:24;100078.66;;;32.08;34.01
22031;BME280;11179;52.106;21.024;2023-07-13T07:52:50;100083.47;;;32.14;34.65
22031;BME280;11179;52.106;21.024;2023-07-13T07:55:15;100081.00;;;32.23;33.93
22031;BME280;11179;52.106;21.024;2023-07-13T07:57:40;100090.75;;;32.22;33.09
22031;BME280;11179;52.106;21.024;2023-07-13T08:00:06;100090.75;;;32.33;33.78
22031;BME280;11179;52.106;21.024;2023-07-13T08:02:32;100096.47;;;32.15;31.69
22031;BME280;11179;52.106;21.024;2023-07-13T08:04:57;100086.41;;;31.93;32.05
22031;BME280;11179;52.106;21.024;2023-07-13T08:07:22;100088.88;;;31.80;32.66
22031;BME280;11179;52.106;21.024;2023-07-13T08:09:48;100091.63;;;32.05;33.13
22031;BME280;11179;52.106;21.024;2023-07-13T08:12:17;100080.59;;;32.36;32.44
22031;BME280;11179;52.106;21.024;2023-07-13T08:14:42;100082.50;;;32.56;33.04
22031;BME280;11179;52.106;21.024;2023-07-13T08:17:07;100081.94;;;32.86;33.33
22031;BME280;11179;52.106;21.024;2023-07-13T08:19:33;100078.59;;;32.95;33.05
22031;BME280;11179;52.106;21.024;2023-07-13T08:21:58;100065.88;;;33.14;33.63
22031;BME280;11179;52.106;21.024;2023-07-13T08:24:23;100065.81;;;33.21;33.35
22031;BME280;11179;52.106;21.024;2023-07-13T08:26:50;100061.31;;;33.27;32.93
22031;BME280;11179;52.106;21.024;2023-07-13T08:29:16;100062.94;;;32.65;33.92
22031;BME280;11179;52.106;21.024;2023-07-13T08:31:41;100062.47;;;32.78;33.92
22031;BME280;11179;52.106;21.024;2023-07-13T08:34:06;100058.69;;;32.98;33.88
22031;BME280;11179;52.106;21.024;2023-07-13T08:36:32;100057.56;;;33.37;33.24
22031;BME280;11179;52.106;21.024;2023-07-13T08:38:57;100057.44;;;33.48;33.56
22031;BME280;11179;52.106;21.024;2023-07-13T08:41:22;100068.34;;;33.56;33.30
22031;BME280;11179;52.106;21.024;2023-07-13T08:43:51;100060.19;;;33.58;32.31
22031;BME280;11179;52.106;21.024;2023-07-13T08:46:35;100062.56;;;33.19;32.74
22031;BME280;11179;52.106;21.024;2023-07-13T08:49:03;100060.19;;;32.51;33.47
22031;BME280;11179;52.106;21.024;2023-07-13T08:51:45;100073.06;;;31.79;34.39
22031;BME280;11179;52.106;21.024;2023-07-13T08:54:24;100074.59;;;32.05;34.74
22031;BME280;11179;52.106;21.024;2023-07-13T08:56:53;100076.53;;;32.22;34.92
22031;BME280;11179;52.106;21.024;2023-07-13T08:59:21;100075.75;;;32.18;35.06
22031;BME280;11179;52.106;21.024;2023-07-13T09:04:42;100082.31;;;32.01;35.18
22031;BME280;11179;52.106;21.024;2023-07-13T09:15:30;100078.69;;;31.93;35.48
22031;BME280;11179;52.106;21.024;2023-07-13T09:18:01;100076.88;;;32.46;35.30
22031;BME280;11179;52.106;21.024;2023-07-13T09:20:43;100060.81;;;32.87;35.21
22031;BME280;11179;52.106;21.024;2023-07-13T09:23:15;100065.34;;;32.74;35.12
22031;BME280;11179;52.106;21.024;2023-07-13T09:25:45;100064.63;;;32.56;34.90
22031;BME280;11179;52.106;21.024;2023-07-13T09:28:18;100062.66;;;32.46;35.05
22031;BME280;11179;52.106;21.024;2023-07-13T09:33:41;100053.91;;;31.97;34.64
22031;BME280;11179;52.106;21.024;2023-07-13T09:36:18;100056.00;;;31.90;34.78
22031;BME280;11179;52.106;21.024;2023-07-13T09:38:44;100058.03;;;31.93;34.81
22031;BME280;11179;52.106;21.024;2023-07-13T09:43:39;100041.09;;;32.55;34.79
22031;BME280;11179;52.106;21.024;2023-07-13T09:46:04;100037.75;;;32.71;34.89
22031;BME280;11179;52.106;21.024;2023-07-13T09:48:36;100022.41;;;32.58;33.86
22031;BME280;11179;52.106;21.024;2023-07-13T09:51:14;100032.81;;;32.02;34.07
22031;BME280;11179;52.106;21.024;2023-07-13T09:53:42;100024.81;;;31.58;34.72
22031;BME280;11179;52.106;21.024;2023-07-13T09:56:22;100027.72;;;31.40;35.32
22031;BME280;11179;52.106;21.024;2023-07-13T09:58:48;100020.00;;;31.55;34.71
22031;BME280;11179;52.106;21.024;2023-07-13T10:01:14;100020.34;;;31.64;34.63
22031;BME280;11179;52.106;21.024;2023-07-13T10:03:52;100009.78;;;31.82;34.32
22031;BME280;11179;52.106;21.024;2023-07-13T10:06:20;100005.38;;;31.56;34.53
22031;BME280;11179;52.106;21.024;2023-07-13T10:08:48;100003.81;;;31.20;34.90
22031;BME280;11179;52.106;21.024;2023-07-13T10:11:35;99997.75;;;30.72;35.88
22031;BME280;11179;52.106;21.024;2023-07-13T10:14:13;99997.69;;;30.65;35.61
22031;BME280;11179;52.106;21.024;2023-07-13T10:16:41;100000.50;;;30.50;35.93
22031;BME280;11179;52.106;21.024;2023-07-13T10:19:21;99989.97;;;30.40;35.59
22031;BME280;11179;52.106;21.024;2023-07-13T10:21:53;99997.63;;;30.18;36.32
22031;BME280;11179;52.106;21.024;2023-07-13T10:24:25;99997.44;;;29.76;35.98
22031;BME280;11179;52.106;21.024;2023-07-13T10:27:00;99993.91;;;29.28;36.01
22031;BME280;11179;52.106;21.024;2023-07-13T10:29:34;99995.72;;;29.06;36.28
22031;BME280;11179;52.106;21.024;2023-07-13T10:32:01;100004.75;;;28.71;36.53
22031;BME280;11179;52.106;21.024;2023-07-13T10:34:27;100006.88;;;28.44;36.46
22031;BME280;11179;52.106;21.024;2023-07-13T10:36:52;100008.78;;;27.99;36.95
22031;BME280;11179;52.106;21.024;2023-07-13T10:39:28;100010.94;;;27.50;36.96
22031;BME280;11179;52.106;21.024;2023-07-13T10:42:06;100004.34;;;26.89;37.88
22031;BME280;11179;52.106;21.024;2023-07-13T10:44:37;100019.22;;;26.25;39.20
22031;BME280;11179;52.106;21.024;2023-07-13T10:47:08;100010.63;;;25.79;39.97
22031;BME280;11179;52.106;21.024;2023-07-13T10:49:37;99995.25;;;25.38;40.66
22031;BME280;11179;52.106;21.024;2023-07-13T10:52:03;100000.34;;;25.17;41.75
22031;BME280;11179;52.106;21.024;2023-07-13T10:59:37;100024.22;;;24.76;43.14
22031;BME280;11179;52.106;21.024;2023-07-13T11:04:41;100084.22;;;24.55;45.21
22031;BME280;11179;52.106;21.024;2023-07-13T11:07:22;100107.72;;;24.51;45.76
22031;BME280;11179;52.106;21.024;2023-07-13T11:09:53;100112.19;;;24.12;47.87
22031;BME280;11179;52.106;21.024;2023-07-13T11:17:51;100155.47;;;23.13;51.36
22031;BME280;11179;52.106;21.024;2023-07-13T11:20:31;100159.34;;;22.88;52.47
22031;BME280;11179;52.106;21.024;2023-07-13T11:25:38;100168.53;;;22.23;53.24
22031;BME280;11179;52.106;21.024;2023-07-13T11:30:36;100159.28;;;21.80;54.78
22031;BME280;11179;52.106;21.024;2023-07-13T11:35:34;100153.78;;;21.84;55.13
22031;BME280;11179;52.106;21.024;2023-07-13T11:38:00;100145.13;;;21.77;55.33
22031;BME280;11179;52.106;21.024;2023-07-13T11:40:27;100141.94;;;21.66;55.41
22031;BME280;11179;52.106;21.024;2023-07-13T11:43:01;100142.75;;;21.67;56.33
22031;BME280;11179;52.106;21.024;2023-07-13T11:45:27;100151.31;;;21.62;55.88
22031;BME280;11179;52.106;21.024;2023-07-13T11:47:53;100150.38;;;21.49;56.70
22031;BME280;11179;52.106;21.024;2023-07-13T11:50:21;100148.78;;;21.39;56.79
22031;BME280;11179;52.106;21.024;2023-07-13T11:52:48;100160.34;;;21.29;56.96
22031;BME280;11179;52.106;21.024;2023-07-13T11:55:17;100167.25;;;21.23;57.40
22031;BME280;11179;52.106;21.024;2023-07-13T11:57:57;100181.66;;;21.34;58.07
22031;BME280;11179;52.106;21.024;2023-07-13T12:00:28;100183.41;;;21.47;57.87
22031;BME280;11179;52.106;21.024;2023-07-13T12:02:56;100193.75;;;21.55;58.03
22031;BME280;11179;52.106;21.024;2023-07-13T12:05:22;100197.31;;;21.64;58.44
22031;BME280;11179;52.106;21.024;2023-07-13T12:07:49;100203.19;;;21.71;58.77
22031;BME280;11179;52.106;21.024;2023-07-13T12:12:57;100213.19;;;21.81;59.44
22031;BME280;11179;52.106;21.024;2023-07-13T12:15:27;100213.13;;;21.90;59.83
22031;BME280;11179;52.106;21.024;2023-07-13T12:17:53;100215.03;;;21.98;60.09
22031;BME280;11179;52.106;21.024;2023-07-13T12:20:26;100212.06;;;22.03;60.43
22031;BME280;11179;52.106;21.024;2023-07-13T12:22:52;100203.34;;;22.04;60.88
22031;BME280;11179;52.106;21.024;2023-07-13T12:25:19;100195.56;;;22.10;60.77
22031;BME280;11179;52.106;21.024;2023-07-13T12:27:49;100193.38;;;22.15;61.12
22031;BME280;11179;52.106;21.024;2023-07-13T12:30:24;100193.53;;;22.19;61.37
22031;BME280;11179;52.106;21.024;2023-07-13T12:33:11;100185.31;;;22.14;61.22
22031;BME280;11179;52.106;21.024;2023-07-13T12:35:46;100180.16;;;22.04;61.08
22031;BME280;11179;52.106;21.024;2023-07-13T12:38:12;100174.56;;;22.04;61.28
22031;BME280;11179;52.106;21.024;2023-07-13T12:40:38;100166.09;;;22.12;61.28
22031;BME280;11179;52.106;21.024;2023-07-13T12:43:09;100150.09;;;22.22;60.95
22031;BME280;11179;52.106;21.024;2023-07-13T12:45:36;100141.25;;;22.11;60.96
22031;BME280;11179;52.106;21.024;2023-07-13T12:48:13;100134.66;;;21.95;61.33
22031;BME280;11179;52.106;21.024;2023-07-13T12:50:41;100146.34;;;21.97;61.06
22031;BME280;11179;52.106;21.024;2023-07-13T12:53:23;100150.56;;;22.03;61.48
22031;BME280;11179;52.106;21.024;2023-07-13T12:55:53;100154.66;;;22.05;61.42
22031;BME280;11179;52.106;21.024;2023-07-13T12:58:35;100157.09;;;22.07;61.82
22031;BME280;11179;52.106;21.024;2023-07-13T13:01:02;100150.69;;;22.06;61.71
22031;BME280;11179;52.106;21.024;2023-07-13T13:03:34;100154.66;;;22.05;61.78
22031;BME280;11179;52.106;21.024;2023-07-13T13:06:06;100154.50;;;22.02;62.10
22031;BME280;11179;52.106;21.024;2023-07-13T13:08:33;100160.09;;;22.02;62.45
22031;BME280;11179;52.106;21.024;2023-07-13T13:10:59;100151.38;;;22.03;62.54
22031;BME280;11179;52.106;21.024;2023-07-13T13:13:24;100156.28;;;22.06;62.52
22031;BME280;11179;52.106;21.024;2023-07-13T13:15:50;100153.53;;;21.98;62.47
22031;BME280;11179;52.106;21.024;2023-07-13T13:18:20;100156.69;;;21.96;62.60
22031;BME280;11179;52.106;21.024;2023-07-13T13:20:47;100160.97;;;21.94;62.53
22031;BME280;11179;52.106;21.024;2023-07-13T13:23:14;100161.31;;;21.92;62.65